Archival Weather

Luke Afb

Glendale, Arizona (KLUF)

Report from: Friday, April 19, 2024 12:55 PM MST
Current time: Monday, June 24, 2024 3:38 AM MST

Current weather – Weather history – Daily summaries
Weather forecast

Temperature31.1°C (88.0°F)
Heat index29.1°C (84.3°F)
Dew point-8.8°C (16.2°F)
Winds 9 kts (4.6 m/s, 10.4 mph) South-Southwest (200°)
Visibility10 mi. (16.1 km)
Clouds Few clouds 17,000 ft. (5,182 m)
Few clouds 20,000 ft. (6,096 m)
Altimeter29.80 in.Hg (1009 mB)
Relative humidity7 %
Density altitude2,077 ft. (633 m)
Sea-level pressure100.8 kPa (1008 mB, 29.77 in.Hg)
Remarks Fully automated report
System requires maintenance
Automated weather observing station with precipitation discriminator
Flight conditions Visual Meteorological Conditions
Raw dataKLUF 191955Z AUTO 20009KT 10SM FEW170 FEW200 31/M09 A2980 RMK AO2 SLP080 T03111088 $
An error has occurred. This application may no longer respond until reloaded. Reload 🗙